Groves, Texas
Current Conditions -  °F | °C
As of 8:53 PM on Thursday 18 Dec 2014 (Local Time) from KBPT Reporting Station
Overcast Overcast  
Wind Chill: 59°   Ceiling: 1000
Heat Index: 59°   Visibility: 8mi
Dew Point: 55°   Wind: 10mph
Humidity: 87%   Direction: 40°NE
Pressure: 30.08"   Gusts: NA
Location:  29.95°N, 93.92°W
Report Text: KBPT 190253Z 04009KT 8SM BKN010 OVC021 15/13 A3008 RMK AO2 SLP187 T01500128 50006
Loading
Personal Weather Stations






























Interactive Weather Map New forecast layout! Learn more

10-Day Weather Forecast

Advertisements
Track Severe Weather on mobile